Flight Track Log - Related Links

Times and Time Zones

All times are in EDT time to prevent confusion due to time zone crossing. See the N53NW flight status page for this flight to view local times or setup timezone preferences in your user account.

Time Position Orientation Groundspeed Altitude Reporting Facility
EDT Latitude Longitude Course Direction KTS MPH feet Rate Location/Type
Wed 19:16:05 42.1500 -87.8000 45° Northeast 254 292 2,500  Level Chicago TRACON
Wed 19:16:39 42.1686 -87.7567 60° Northeast 261 300 3,600 1,188 Climbing Chicago Center
Wed 19:17:41 42.1722 -87.6492 87° East 278 320 4,400 1,306 Climbing Chicago Center
Wed 19:18:43 42.1317 -87.5750 126° Southeast 290 334 6,300 2,637 Climbing Chicago Center
Wed 19:19:12 42.0833 -87.5667 173° South 296 341 8,400 3,145 Climbing Chicago TRACON
Wed 19:20:47 41.9808 -87.5153 160° South 307 353 12,800 2,637 Climbing Chicago Center
Wed 19:21:49 41.9592 -87.3894 103° East 346 398 15,300 2,952 Climbing Chicago Center
Wed 19:22:51 41.9444 -87.2414 98° East 335 386 18,900 2,829 Climbing Chicago Center
Wed 19:23:52 41.9308 -87.1150 98° East 343 395 21,100 2,146 Climbing Chicago Center
Wed 19:24:54 41.9158 -86.9792 98° East 364 419 23,300 1,887 Climbing Chicago Center
Wed 19:25:56 41.9014 -86.8411 98° East 375 432 25,000 823 Climbing Chicago Center
Wed 19:26:58 41.8844 -86.6908 99° East 417 480 25,000  Level Chicago Center
Wed 19:28:00 41.8631 -86.5014 99° East 428 493 25,000  Level Chicago Center
Wed 19:29:02 41.8414 -86.3458 101° East 428 493 25,000  Level Chicago Center
Wed 19:30:04 41.8053 -86.1944 108° East 428 493 25,000  Level Chicago Center
Wed 19:31:06 41.7697 -86.0436 107° East 427 491 25,000  Level Chicago Center
Wed 19:32:08 41.7142 -85.9086 119° Southeast 429 494 25,000  Level Chicago Center
Wed 19:33:10 41.6328 -85.7989 135° Southeast 422 486 25,000  Level Chicago Center
Wed 19:34:12 41.5350 -85.6683 135° Southeast 419 482 25,000 -581 Level Chicago Center
Wed 19:35:14 41.4533 -85.5617 136° Southeast 419 482 23,800 -968 Descending Chicago Center
Wed 19:36:16 41.3750 -85.4567 135° Southeast 408 470 23,000 -384 Descending Chicago Center
Wed 19:37:19 41.2947 -85.3511 135° Southeast 408 470 23,000  Level Chicago Center
Wed 19:38:21 41.1994 -85.2261 135° Southeast 406 467 23,000  Level Chicago Center
Wed 19:39:23 41.1194 -85.1219 136° Southeast 405 466 23,000  Level Chicago Center
Wed 19:40:25 41.0414 -85.0197 135° Southeast 401 461 23,000  Level Chicago Center
Wed 19:41:27 40.9619 -84.9186 136° Southeast 398 458 23,000  Level Chicago Center
Wed 19:42:29 40.8839 -84.8175 136° Southeast 394 453 23,000  Level Chicago Center
Wed 19:43:31 40.8197 -84.6675 119° Southeast 402 463 23,000 -145 Level Chicago Center
Wed 19:44:33 40.7769 -84.5308 112° Southeast 403 464 22,700 -871 Descending Chicago Center
Wed 19:45:35 40.7347 -84.3939 112° Southeast 404 465 21,200 -1,403 Descending Chicago Center
Wed 19:46:37 40.6928 -84.2611 113° Southeast 398 458 19,800 -1,395 Descending Chicago Center
Wed 19:47:44 40.6439 -84.1094 113° Southeast 389 448 18,200 -1,488 Descending Indianapolis Center
Wed 19:48:46 40.6028 -83.9781 112° Southeast 386 444 16,600 -1,403 Descending Indianapolis Center
Wed 19:49:48 40.5636 -83.8511 112° Southeast 375 432 15,300 -1,215 Descending Indianapolis Center
Wed 19:50:05 40.5497 -83.8131 116° Southeast 364 419 15,000 -1,429 Descending Indianapolis Center
Wed 19:50:30 40.5328 -83.7586 112° Southeast 357 411 14,300 -1,364 Descending Indianapolis Center
Wed 19:50:49 40.5247 -83.7303 110° East 362 417 14,000 -1,180 Descending Indianapolis Center
Wed 19:51:31 40.4936 -83.6383 114° Southeast 350 403 13,100 -1,161 Descending Indianapolis Center
Wed 19:51:51 40.4867 -83.6133 110° East 349 402 12,800 -1,200 Descending Indianapolis Center
Wed 19:52:31 40.4578 -83.5269 114° Southeast 339 390 11,900 -1,161 Descending Indianapolis Center
Wed 19:52:53 40.4492 -83.4997 113° Southeast 338 389 11,600 -1,475 Descending Indianapolis Center
Wed 19:53:32 40.4217 -83.4156 113° Southeast 329 379 10,400 -1,742 Descending Indianapolis Center
Wed 19:53:55 40.4133 -83.3869 111° Southeast 334 384 9,800 -2,066 Descending Indianapolis Center
Wed 19:54:33 40.3625 -83.3372 143° Southeast 303 349 8,300 -2,361 Descending Indianapolis Center
Wed 19:54:56 40.3339 -83.3103 144° Southeast 309 356 7,400 -2,164 Descending Indianapolis Center
Wed 19:55:34 40.2933 -83.2769 148° Southeast 272 313 6,100 -1,839 Descending Indianapolis Center
Wed 19:55:58 40.2678 -83.2597 153° Southeast 286 329 5,500 -1,475 Descending Indianapolis Center
Wed 19:56:35 40.2242 -83.2494 170° South 247 284 4,600 -1,452 Descending Indianapolis Center
Wed 19:57:00 40.1956 -83.2403 166° South 269 310 4,000 -1,500 Descending Indianapolis Center
Wed 19:57:35 40.1503 -83.2272 168° South 274 315 3,100 -984 Descending Indianapolis Center
Wed 19:58:01 40.1217 -83.2178 166° South 268 308 3,000 -68 Descending Indianapolis Center
Wed 19:59:03 40.0597 -83.1967 165° South 267 307 3,000  Level Indianapolis Center

Login

Don't have an account? Register now (free) for customized features, flight alerts, and more!